createdAt,value
2023-04-19T00:04:10.115Z,99028.31
2023-04-19T00:09:12.114Z,99017.31
2023-04-19T00:14:14.116Z,99022.53
2023-04-19T00:19:16.320Z,99017.75
2023-04-19T00:24:18.451Z,99013.47
2023-04-19T00:29:20.199Z,99016.97
2023-04-19T00:34:22.037Z,99005.34
2023-04-19T00:39:24.149Z,99012.22
2023-04-19T00:44:25.926Z,99007.44
2023-04-19T00:49:30.024Z,98999.53
2023-04-19T00:54:33.527Z,98993.19
2023-04-19T00:59:35.416Z,98994.56
2023-04-19T01:04:39.028Z,98985.16
2023-04-19T01:09:43.395Z,98984.56
2023-04-19T01:14:45.231Z,98978.69
2023-04-19T01:19:47.387Z,98975.97
2023-04-19T01:24:49.173Z,98964.00
2023-04-19T01:29:51.048Z,98966.25
2023-04-19T01:34:53.219Z,98966.47
2023-04-19T01:39:55.024Z,98955.38
2023-04-19T01:44:56.817Z,98968.81
2023-04-19T01:49:58.591Z,98962.34
2023-04-19T01:55:00.437Z,98957.13
2023-04-19T02:00:02.596Z,98953.97
2023-04-19T02:05:08.519Z,98952.81
2023-04-19T02:10:14.352Z,98949.34
2023-04-19T02:15:16.144Z,98951.91
2023-04-19T02:20:17.987Z,98942.41
2023-04-19T02:25:20.091Z,98943.06
2023-04-19T02:30:21.952Z,98950.75
2023-04-19T02:35:25.465Z,98942.50
2023-04-19T02:40:27.292Z,98940.44
2023-04-19T02:45:29.119Z,98934.09
2023-04-19T02:50:31.154Z,98919.28
2023-04-19T02:55:33.417Z,98918.06
2023-04-19T03:00:50.138Z,98922.22
2023-04-19T03:05:55.687Z,98921.75
2023-04-19T03:10:58.496Z,98911.13
2023-04-19T03:16:00.698Z,98906.38
2023-04-19T03:21:05.532Z,98910.19
2023-04-19T03:26:16.132Z,98900.34
2023-04-19T03:31:21.849Z,98899.44
2023-04-19T03:36:27.018Z,98888.00
2023-04-19T03:41:29.058Z,98877.84
2023-04-19T03:46:51.266Z,98873.75
2023-04-19T03:51:57.855Z,98875.53
2023-04-19T03:57:01.194Z,98868.13
2023-04-19T04:02:04.220Z,98871.34
2023-04-19T04:07:06.140Z,98862.13
2023-04-19T04:12:08.597Z,98865.25
2023-04-19T04:17:11.310Z,98878.34
2023-04-19T04:22:13.243Z,98870.44
2023-04-19T04:27:21.347Z,98874.91
2023-04-19T04:32:24.992Z,98882.56
2023-04-19T04:37:36.279Z,98878.94
2023-04-19T04:42:39.178Z,98884.38
2023-04-19T04:47:41.765Z,98872.47
2023-04-19T04:52:45.797Z,98866.66
2023-04-19T04:57:54.468Z,98868.78
2023-04-19T05:03:04.201Z,98866.56
2023-04-19T05:08:10.717Z,98871.38
2023-04-19T05:13:13.904Z,98871.56
2023-04-19T05:18:16.085Z,98859.16
2023-04-19T05:23:18.800Z,98861.19
2023-04-19T05:28:20.792Z,98858.84
2023-04-19T05:33:35.103Z,98865.03
2023-04-19T05:38:37.034Z,98873.31
2023-04-19T05:43:40.050Z,98882.56
2023-04-19T05:48:43.225Z,98871.16
2023-04-19T05:54:03.561Z,98867.81
2023-04-19T05:59:06.720Z,98872.63
2023-04-19T06:04:08.599Z,98881.38
2023-04-19T06:09:12.405Z,98875.03
2023-04-19T06:14:15.910Z,98879.31
2023-04-19T06:19:19.092Z,98875.31
2023-04-19T06:24:20.973Z,98871.50
2023-04-19T06:29:24.242Z,98870.06
2023-04-19T06:34:26.006Z,98866.09
2023-04-19T06:39:28.459Z,98851.91
2023-04-19T06:44:30.283Z,98859.34
2023-04-19T06:49:32.107Z,98859.91
2023-04-19T06:54:33.917Z,98864.94
2023-04-19T06:59:39.933Z,98861.66
2023-04-19T07:04:42.128Z,98859.91
2023-04-19T07:09:44.140Z,98855.75
2023-04-19T07:14:45.947Z,98842.38
2023-04-19T07:19:49.045Z,98827.22
2023-04-19T07:24:52.225Z,98826.03
2023-04-19T07:29:54.047Z,98826.75
2023-04-19T07:34:56.055Z,98822.06
2023-04-19T07:39:57.913Z,98812.47
2023-04-19T07:45:00.270Z,98818.25
2023-04-19T07:50:02.131Z,98805.78
2023-04-19T07:55:04.279Z,98810.28
2023-04-19T08:00:06.950Z,98804.38
2023-04-19T08:05:17.695Z,98794.66
2023-04-19T08:10:22.224Z,98804.25
2023-04-19T08:16:04.919Z,98801.13
2023-04-19T08:20:49.323Z,98790.81
2023-04-19T08:25:51.353Z,98792.22
2023-04-19T08:30:54.484Z,98782.50
2023-04-19T08:35:56.278Z,98778.66
2023-04-19T08:40:58.185Z,98767.09
2023-04-19T08:46:00.371Z,98764.84
2023-04-19T08:51:05.583Z,98763.53
2023-04-19T08:56:18.095Z,98769.44
2023-04-19T09:06:41.616Z,98749.97
2023-04-19T09:11:43.790Z,98741.00
2023-04-19T09:16:46.301Z,98753.63
2023-04-19T09:21:51.874Z,98735.16
2023-04-19T09:26:55.044Z,98736.28
2023-04-19T09:31:59.560Z,98734.34
2023-04-19T09:37:24.963Z,98737.69
2023-04-19T09:48:11.543Z,98727.84
2023-04-19T09:53:14.247Z,98721.72
2023-04-19T09:58:17.057Z,98719.81
2023-04-19T10:03:20.541Z,98726.75
2023-04-19T10:08:22.376Z,98708.03
2023-04-19T10:13:26.835Z,98701.47
2023-04-19T10:18:29.803Z,98709.38
2023-04-19T10:23:33.384Z,98697.34
2023-04-19T10:28:36.828Z,98681.47
2023-04-19T10:33:38.839Z,98696.06
2023-04-19T10:38:48.983Z,98693.84
2023-04-19T10:43:57.838Z,98691.59
2023-04-19T10:49:01.211Z,98681.41
2023-04-19T10:54:07.371Z,98684.31
2023-04-19T10:59:13.292Z,98689.13
2023-04-19T11:04:30.182Z,98693.34
2023-04-19T11:09:38.305Z,98679.28
2023-04-19T11:14:42.907Z,98662.47
2023-04-19T11:20:03.393Z,98649.25
2023-04-19T11:25:17.361Z,98649.06
2023-04-19T11:30:22.580Z,98643.03
2023-04-19T11:35:26.945Z,98628.69
2023-04-19T11:40:28.888Z,98637.00
2023-04-19T11:45:39.495Z,98631.50
2023-04-19T11:50:43.690Z,98639.41
2023-04-19T11:55:53.345Z,98636.78
2023-04-19T12:00:56.586Z,98629.84
2023-04-19T12:06:00.785Z,98629.72
2023-04-19T12:11:03.757Z,98635.59
2023-04-19T12:16:05.710Z,98633.28
2023-04-19T12:21:08.053Z,98631.53
2023-04-19T12:26:09.869Z,98621.56
2023-04-19T12:31:11.728Z,98617.16
2023-04-19T12:36:13.559Z,98617.88
2023-04-19T12:41:15.376Z,98613.44
2023-04-19T12:46:17.186Z,98613.31
2023-04-19T12:51:19.020Z,98615.44
2023-04-19T12:56:21.381Z,98612.28
2023-04-19T13:01:23.676Z,98608.44
2023-04-19T13:06:26.370Z,98605.19
2023-04-19T13:11:28.311Z,98593.97
2023-04-19T13:16:30.124Z,98596.13
2023-04-19T13:21:32.018Z,98589.19
2023-04-19T13:26:36.875Z,98575.97
2023-04-19T13:31:38.907Z,98565.50
2023-04-19T13:36:41.274Z,98550.63
2023-04-19T13:41:43.340Z,98546.63
2023-04-19T13:46:45.328Z,98536.00
2023-04-19T13:51:50.732Z,98534.69
2023-04-19T13:56:52.964Z,98531.56
2023-04-19T14:01:56.133Z,98544.47
2023-04-19T14:06:58.054Z,98549.13
2023-04-19T14:12:00.379Z,98536.56
2023-04-19T14:17:02.314Z,98533.28
2023-04-19T14:22:04.107Z,98542.31
2023-04-19T14:27:10.316Z,98563.38
2023-04-19T14:32:24.992Z,98574.19
2023-04-19T14:37:28.708Z,98569.91
2023-04-19T14:42:30.994Z,98574.97
2023-04-19T14:47:32.784Z,98576.13
2023-04-19T14:52:34.924Z,98569.59
2023-04-19T14:57:36.727Z,98578.84
2023-04-19T15:02:38.714Z,98588.34
2023-04-19T15:07:40.660Z,98586.28
2023-04-19T15:12:42.535Z,98588.44
2023-04-19T15:17:44.472Z,98580.88
2023-04-19T15:22:46.277Z,98580.66
2023-04-19T15:27:48.050Z,98583.81
2023-04-19T15:32:49.913Z,98588.28
2023-04-19T15:37:51.695Z,98585.00
2023-04-19T15:42:53.463Z,98593.75
2023-04-19T15:47:55.342Z,98587.53
2023-04-19T15:52:57.556Z,98587.44
2023-04-19T15:58:00.071Z,98585.84
2023-04-19T16:03:02.043Z,98589.13
2023-04-19T16:08:09.198Z,98584.66
2023-04-19T16:13:13.449Z,98582.81
2023-04-19T16:18:15.464Z,98588.91
2023-04-19T16:23:17.346Z,98574.81
2023-04-19T16:28:19.928Z,98570.94
2023-04-19T16:33:21.883Z,98573.22
2023-04-19T16:38:23.736Z,98576.91
2023-04-19T16:43:25.522Z,98569.69
2023-04-19T16:48:27.396Z,98568.34
2023-04-19T16:53:31.375Z,98555.41
2023-04-19T16:58:33.155Z,98554.97
2023-04-19T17:03:35.454Z,98541.88
2023-04-19T17:08:38.571Z,98543.38
2023-04-19T17:13:40.461Z,98546.53
2023-04-19T17:18:42.219Z,98541.13
2023-04-19T17:23:45.625Z,98530.97
2023-04-19T17:28:47.417Z,98538.84
2023-04-19T17:33:49.318Z,98543.34
2023-04-19T17:38:51.131Z,98535.09
2023-04-19T17:43:52.993Z,98539.94
2023-04-19T17:48:55.607Z,98541.06
2023-04-19T17:53:57.397Z,98536.78
2023-04-19T17:59:00.834Z,98532.44
2023-04-19T18:04:03.420Z,98534.78
2023-04-19T18:09:05.450Z,98540.06
2023-04-19T18:14:07.509Z,98546.13
2023-04-19T18:19:09.568Z,98548.50
2023-04-19T18:24:11.444Z,98539.63
2023-04-19T18:29:16.001Z,98546.00
2023-04-19T18:34:18.203Z,98551.94
2023-04-19T18:39:19.984Z,98557.88
2023-04-19T18:44:44.191Z,98555.53
2023-04-19T18:49:49.325Z,98558.56
2023-04-19T18:54:59.801Z,98559.34
2023-04-19T19:00:02.609Z,98556.44
2023-04-19T19:05:07.442Z,98560.38
2023-04-19T19:15:16.149Z,98561.41
2023-04-19T19:20:20.055Z,98558.41
2023-04-19T19:25:23.209Z,98560.00
2023-04-19T19:30:26.104Z,98561.13
2023-04-19T19:35:28.767Z,98557.50
2023-04-19T19:40:32.728Z,98561.19
2023-04-19T19:45:36.898Z,98556.97
2023-04-19T19:51:07.282Z,98556.31
2023-04-19T19:56:01.816Z,98547.75
2023-04-19T20:01:04.365Z,98555.75
2023-04-19T20:11:12.220Z,98553.78
2023-04-19T20:16:15.006Z,98549.63
2023-04-19T20:21:19.779Z,98546.97
2023-04-19T20:26:22.057Z,98544.59
2023-04-19T20:31:24.133Z,98550.59
2023-04-19T20:36:27.652Z,98550.78
2023-04-19T20:41:29.520Z,98548.16
2023-04-19T20:46:32.133Z,98547.50
2023-04-19T20:51:34.033Z,98551.34
2023-04-19T20:56:35.804Z,98555.47
2023-04-19T21:01:37.714Z,98552.66
2023-04-19T21:06:39.564Z,98551.28
2023-04-19T21:11:41.323Z,98546.38
2023-04-19T21:16:43.092Z,98542.88
2023-04-19T21:21:45.113Z,98542.59
2023-04-19T21:26:46.922Z,98537.19
2023-04-19T21:31:48.756Z,98536.84
2023-04-19T21:36:50.633Z,98537.59
2023-04-19T21:41:52.479Z,98547.44
2023-04-19T21:46:54.281Z,98545.06
2023-04-19T21:51:56.985Z,98538.56
2023-04-19T21:56:59.804Z,98536.97
2023-04-19T22:02:01.672Z,98538.72
2023-04-19T22:07:03.562Z,98534.72
2023-04-19T22:12:06.163Z,98538.50
2023-04-19T22:17:09.107Z,98534.84
2023-04-19T22:22:10.936Z,98524.19
2023-04-19T22:27:12.714Z,98527.47
2023-04-19T22:32:14.555Z,98525.38
2023-04-19T22:37:16.527Z,98524.13
2023-04-19T22:42:18.354Z,98528.16
2023-04-19T22:47:20.151Z,98523.84
2023-04-19T22:52:21.968Z,98525.44
2023-04-19T22:57:23.796Z,98531.28
2023-04-19T23:02:25.727Z,98532.59
2023-04-19T23:07:28.984Z,98525.66
2023-04-19T23:12:31.222Z,98527.94
2023-04-19T23:17:33.136Z,98521.16
2023-04-19T23:22:34.970Z,98527.97
2023-04-19T23:27:36.818Z,98524.97
2023-04-19T23:32:38.709Z,98525.75
2023-04-19T23:37:41.089Z,98528.28
2023-04-19T23:42:42.875Z,98525.16
2023-04-19T23:47:44.986Z,98526.31
2023-04-19T23:52:46.775Z,98518.34
2023-04-19T23:57:49.317Z,98509.63
